sensor_id;sensor_type;location;lat;lon;timestamp;pressure;altitude;pressure_sealevel;temperature;humidity
22651;BME280;11492;42.646;23.400;2023-02-18T00:01:56;95813.78;;;4.63;55.45
22651;BME280;11492;42.646;23.400;2023-02-18T00:04:21;95812.72;;;4.46;56.16
22651;BME280;11492;42.646;23.400;2023-02-18T00:06:46;95811.47;;;4.60;56.19
22651;BME280;11492;42.646;23.400;2023-02-18T00:09:12;95795.72;;;4.45;56.39
22651;BME280;11492;42.646;23.400;2023-02-18T00:11:38;95805.66;;;4.58;56.15
22651;BME280;11492;42.646;23.400;2023-02-18T00:14:07;95787.63;;;4.40;56.63
22651;BME280;11492;42.646;23.400;2023-02-18T00:16:34;95789.88;;;4.53;56.70
22651;BME280;11492;42.646;23.400;2023-02-18T00:19:04;95784.97;;;4.61;55.53
22651;BME280;11492;42.646;23.400;2023-02-18T00:21:32;95786.09;;;4.68;55.78
22651;BME280;11492;42.646;23.400;2023-02-18T00:23:57;95781.56;;;4.72;56.53
22651;BME280;11492;42.646;23.400;2023-02-18T00:26:23;95765.19;;;4.63;55.61
22651;BME280;11492;42.646;23.400;2023-02-18T00:28:49;95764.91;;;4.57;55.88
22651;BME280;11492;42.646;23.400;2023-02-18T00:31:30;95764.09;;;4.56;56.84
22651;BME280;11492;42.646;23.400;2023-02-18T00:33:57;95753.88;;;4.56;56.53
22651;BME280;11492;42.646;23.400;2023-02-18T00:36:23;95750.38;;;4.57;56.58
22651;BME280;11492;42.646;23.400;2023-02-18T00:38:52;95757.75;;;4.60;56.07
22651;BME280;11492;42.646;23.400;2023-02-18T00:41:18;95746.88;;;4.58;56.68
22651;BME280;11492;42.646;23.400;2023-02-18T00:43:44;95751.47;;;4.64;56.21
22651;BME280;11492;42.646;23.400;2023-02-18T00:46:10;95746.94;;;4.68;55.45
22651;BME280;11492;42.646;23.400;2023-02-18T00:48:35;95746.78;;;4.69;56.65
22651;BME280;11492;42.646;23.400;2023-02-18T00:51:02;95744.63;;;4.65;56.74
22651;BME280;11492;42.646;23.400;2023-02-18T00:53:28;95751.53;;;4.53;56.24
22651;BME280;11492;42.646;23.400;2023-02-18T00:55:54;95745.75;;;4.51;55.67
22651;BME280;11492;42.646;23.400;2023-02-18T00:58:20;95734.84;;;4.49;55.84
22651;BME280;11492;42.646;23.400;2023-02-18T01:00:45;95746.06;;;4.58;56.81
22651;BME280;11492;42.646;23.400;2023-02-18T01:03:11;95752.84;;;4.28;56.57
22651;BME280;11492;42.646;23.400;2023-02-18T01:05:37;95743.50;;;4.38;56.38
22651;BME280;11492;42.646;23.400;2023-02-18T01:08:03;95744.31;;;4.38;56.62
22651;BME280;11492;42.646;23.400;2023-02-18T01:10:29;95753.00;;;4.47;55.78
22651;BME280;11492;42.646;23.400;2023-02-18T01:12:54;95747.16;;;4.45;56.24
22651;BME280;11492;42.646;23.400;2023-02-18T01:15:20;95750.31;;;4.48;56.29
22651;BME280;11492;42.646;23.400;2023-02-18T01:17:47;95737.88;;;4.44;56.16
22651;BME280;11492;42.646;23.400;2023-02-18T01:20:13;95754.84;;;4.45;56.99
22651;BME280;11492;42.646;23.400;2023-02-18T01:22:39;95742.88;;;4.25;56.31
22651;BME280;11492;42.646;23.400;2023-02-18T01:25:04;95743.50;;;4.38;56.39
22651;BME280;11492;42.646;23.400;2023-02-18T01:27:30;95748.03;;;4.34;56.82
22651;BME280;11492;42.646;23.400;2023-02-18T01:29:55;95741.44;;;4.32;55.98
22651;BME280;11492;42.646;23.400;2023-02-18T01:32:21;95719.31;;;4.42;56.06
22651;BME280;11492;42.646;23.400;2023-02-18T01:34:46;95731.72;;;4.46;56.44
22651;BME280;11492;42.646;23.400;2023-02-18T01:37:12;95725.31;;;4.51;56.05
22651;BME280;11492;42.646;23.400;2023-02-18T01:39:38;95735.09;;;4.47;56.48
22651;BME280;11492;42.646;23.400;2023-02-18T01:42:04;95739.69;;;4.52;56.62
22651;BME280;11492;42.646;23.400;2023-02-18T01:44:32;95729.84;;;4.48;56.18
22651;BME280;11492;42.646;23.400;2023-02-18T01:46:57;95742.50;;;4.49;55.72
22651;BME280;11492;42.646;23.400;2023-02-18T01:49:26;95745.25;;;4.57;55.93
22651;BME280;11492;42.646;23.400;2023-02-18T01:52:23;95748.03;;;4.54;56.43
22651;BME280;11492;42.646;23.400;2023-02-18T01:54:54;95757.41;;;4.45;56.47
22651;BME280;11492;42.646;23.400;2023-02-18T01:57:23;95753.66;;;4.28;57.00
22651;BME280;11492;42.646;23.400;2023-02-18T01:59:55;95765.25;;;4.32;56.04
22651;BME280;11492;42.646;23.400;2023-02-18T02:02:24;95770.94;;;4.36;56.91
22651;BME280;11492;42.646;23.400;2023-02-18T02:04:51;95766.31;;;4.30;55.80
22651;BME280;11492;42.646;23.400;2023-02-18T02:07:18;95752.44;;;4.12;56.68
22651;BME280;11492;42.646;23.400;2023-02-18T02:09:44;95757.59;;;4.01;56.94
22651;BME280;11492;42.646;23.400;2023-02-18T02:31:59;95756.13;;;3.57;58.40
22651;BME280;11492;42.646;23.400;2023-02-18T02:37:15;95757.28;;;3.53;58.68
22651;BME280;11492;42.646;23.400;2023-02-18T02:40:46;95738.16;;;3.48;59.62
22651;BME280;11492;42.646;23.400;2023-02-18T02:45:57;95732.28;;;3.37;60.14
22651;BME280;11492;42.646;23.400;2023-02-18T02:51:50;95726.72;;;3.32;60.32
22651;BME280;11492;42.646;23.400;2023-02-18T02:54:22;95727.75;;;3.29;60.58
22651;BME280;11492;42.646;23.400;2023-02-18T02:56:48;95721.34;;;3.35;60.42
22651;BME280;11492;42.646;23.400;2023-02-18T02:59:21;95731.56;;;3.35;61.17
22651;BME280;11492;42.646;23.400;2023-02-18T03:04:58;95732.84;;;3.29;60.51
22651;BME280;11492;42.646;23.400;2023-02-18T03:12:41;95741.97;;;3.53;59.97
22651;BME280;11492;42.646;23.400;2023-02-18T03:20:26;95732.47;;;3.45;59.95
22651;BME280;11492;42.646;23.400;2023-02-18T03:22:53;95749.88;;;3.40;60.13
22651;BME280;11492;42.646;23.400;2023-02-18T03:25:20;95746.66;;;3.27;60.38
22651;BME280;11492;42.646;23.400;2023-02-18T03:27:55;95754.38;;;3.36;60.63
22651;BME280;11492;42.646;23.400;2023-02-18T03:30:27;95771.69;;;3.44;59.98
22651;BME280;11492;42.646;23.400;2023-02-18T03:32:58;95777.69;;;3.53;60.40
22651;BME280;11492;42.646;23.400;2023-02-18T03:35:25;95777.69;;;3.53;60.28
22651;BME280;11492;42.646;23.400;2023-02-18T03:38:00;95792.31;;;3.51;59.83
22651;BME280;11492;42.646;23.400;2023-02-18T03:40:30;95784.91;;;3.48;59.49
22651;BME280;11492;42.646;23.400;2023-02-18T03:42:57;95785.47;;;3.41;59.68
22651;BME280;11492;42.646;23.400;2023-02-18T03:45:23;95798.22;;;3.41;59.71
22651;BME280;11492;42.646;23.400;2023-02-18T03:47:49;95787.34;;;3.28;60.24
22651;BME280;11492;42.646;23.400;2023-02-18T03:50:14;95794.78;;;3.31;60.68
22651;BME280;11492;42.646;23.400;2023-02-18T03:52:40;95795.59;;;3.32;60.22
22651;BME280;11492;42.646;23.400;2023-02-18T03:55:06;95800.22;;;3.27;61.09
22651;BME280;11492;42.646;23.400;2023-02-18T03:57:31;95808.34;;;3.21;60.93
22651;BME280;11492;42.646;23.400;2023-02-18T03:59:57;95796.28;;;3.12;60.91
22651;BME280;11492;42.646;23.400;2023-02-18T04:02:22;95805.56;;;3.13;61.57
22651;BME280;11492;42.646;23.400;2023-02-18T04:04:47;95805.88;;;3.09;61.80
22651;BME280;11492;42.646;23.400;2023-02-18T04:07:13;95796.81;;;2.72;62.36
22651;BME280;11492;42.646;23.400;2023-02-18T04:09:38;95791.81;;;2.60;63.07
22651;BME280;11492;42.646;23.400;2023-02-18T04:12:04;95784.88;;;2.73;62.88
22651;BME280;11492;42.646;23.400;2023-02-18T04:14:29;95789.09;;;2.85;62.80
22651;BME280;11492;42.646;23.400;2023-02-18T04:16:55;95787.44;;;2.84;63.12
22651;BME280;11492;42.646;23.400;2023-02-18T04:19:20;95774.47;;;2.87;62.76
22651;BME280;11492;42.646;23.400;2023-02-18T04:21:46;95781.66;;;2.93;62.49
22651;BME280;11492;42.646;23.400;2023-02-18T04:24:11;95769.13;;;2.90;62.50
22651;BME280;11492;42.646;23.400;2023-02-18T04:26:36;95765.44;;;2.83;63.11
22651;BME280;11492;42.646;23.400;2023-02-18T04:29:02;95776.78;;;2.79;63.26
22651;BME280;11492;42.646;23.400;2023-02-18T04:31:27;95762.66;;;2.75;63.48
22651;BME280;11492;42.646;23.400;2023-02-18T04:33:53;95762.66;;;2.86;62.97
22651;BME280;11492;42.646;23.400;2023-02-18T04:36:18;95760.00;;;2.87;62.66
22651;BME280;11492;42.646;23.400;2023-02-18T04:38:43;95764.97;;;2.89;62.56
22651;BME280;11492;42.646;23.400;2023-02-18T04:41:09;95760.34;;;2.94;62.54
22651;BME280;11492;42.646;23.400;2023-02-18T04:43:37;95766.03;;;2.97;62.42
22651;BME280;11492;42.646;23.400;2023-02-18T04:46:02;95759.41;;;2.95;62.23
22651;BME280;11492;42.646;23.400;2023-02-18T04:48:27;95768.56;;;3.08;62.97
22651;BME280;11492;42.646;23.400;2023-02-18T04:50:53;95764.75;;;3.02;61.95
22651;BME280;11492;42.646;23.400;2023-02-18T04:53:18;95766.38;;;3.03;61.66
22651;BME280;11492;42.646;23.400;2023-02-18T04:55:48;95773.78;;;2.96;62.52
22651;BME280;11492;42.646;23.400;2023-02-18T04:58:14;95762.41;;;2.89;62.53
22651;BME280;11492;42.646;23.400;2023-02-18T05:00:40;95778.78;;;2.97;61.93
22651;BME280;11492;42.646;23.400;2023-02-18T05:03:05;95773.88;;;2.94;62.59
22651;BME280;11492;42.646;23.400;2023-02-18T05:05:30;95785.13;;;2.92;62.27
22651;BME280;11492;42.646;23.400;2023-02-18T05:07:56;95777.22;;;2.73;63.86
22651;BME280;11492;42.646;23.400;2023-02-18T05:10:21;95782.13;;;2.87;63.26
22651;BME280;11492;42.646;23.400;2023-02-18T05:12:47;95785.81;;;2.94;62.70
22651;BME280;11492;42.646;23.400;2023-02-18T05:15:12;95775.41;;;2.97;63.45
22651;BME280;11492;42.646;23.400;2023-02-18T05:17:38;95773.78;;;2.96;63.57
22651;BME280;11492;42.646;23.400;2023-02-18T05:20:04;95771.00;;;2.98;63.09
22651;BME280;11492;42.646;23.400;2023-02-18T05:22:30;95779.56;;;2.97;63.04
22651;BME280;11492;42.646;23.400;2023-02-18T05:24:55;95779.78;;;2.95;62.46
22651;BME280;11492;42.646;23.400;2023-02-18T05:27:20;95781.78;;;2.91;62.38
22651;BME280;11492;42.646;23.400;2023-02-18T05:29:46;95771.94;;;2.87;62.97
22651;BME280;11492;42.646;23.400;2023-02-18T05:32:11;95761.94;;;2.95;63.27
22651;BME280;11492;42.646;23.400;2023-02-18T05:34:36;95767.88;;;2.95;62.30
22651;BME280;11492;42.646;23.400;2023-02-18T05:37:02;95767.63;;;3.09;62.10
22651;BME280;11492;42.646;23.400;2023-02-18T05:39:27;95766.16;;;3.17;61.95
22651;BME280;11492;42.646;23.400;2023-02-18T05:41:53;95776.09;;;3.31;62.46
22651;BME280;11492;42.646;23.400;2023-02-18T05:44:18;95778.66;;;3.42;62.40
22651;BME280;11492;42.646;23.400;2023-02-18T05:47:01;95771.69;;;3.44;61.63
22651;BME280;11492;42.646;23.400;2023-02-18T05:49:28;95766.94;;;3.39;61.52
22651;BME280;11492;42.646;23.400;2023-02-18T05:51:54;95765.66;;;3.45;61.13
22651;BME280;11492;42.646;23.400;2023-02-18T05:54:20;95779.09;;;3.57;61.08
22651;BME280;11492;42.646;23.400;2023-02-18T05:56:45;95790.31;;;3.66;60.72
22651;BME280;11492;42.646;23.400;2023-02-18T05:59:11;95787.88;;;3.64;60.52
22651;BME280;11492;42.646;23.400;2023-02-18T06:01:36;95787.41;;;3.70;61.34
22651;BME280;11492;42.646;23.400;2023-02-18T06:04:02;95789.25;;;3.79;60.53
22651;BME280;11492;42.646;23.400;2023-02-18T06:06:27;95787.16;;;3.84;60.55
22651;BME280;11492;42.646;23.400;2023-02-18T06:08:53;95791.28;;;3.96;61.26
22651;BME280;11492;42.646;23.400;2023-02-18T06:11:18;95782.50;;;3.89;59.33
22651;BME280;11492;42.646;23.400;2023-02-18T06:13:44;95780.09;;;4.07;59.70
22651;BME280;11492;42.646;23.400;2023-02-18T06:16:09;95793.19;;;4.24;60.10
22651;BME280;11492;42.646;23.400;2023-02-18T06:18:34;95784.88;;;4.32;59.55
22651;BME280;11492;42.646;23.400;2023-02-18T06:21:00;95778.78;;;4.44;58.31
22651;BME280;11492;42.646;23.400;2023-02-18T06:23:25;95781.91;;;4.47;58.13
22651;BME280;11492;42.646;23.400;2023-02-18T06:25:50;95772.63;;;4.46;59.26
22651;BME280;11492;42.646;23.400;2023-02-18T06:28:16;95773.97;;;4.50;59.49
22651;BME280;11492;42.646;23.400;2023-02-18T06:30:43;95771.19;;;4.53;58.63
22651;BME280;11492;42.646;23.400;2023-02-18T06:33:09;95772.94;;;4.52;59.38
22651;BME280;11492;42.646;23.400;2023-02-18T06:35:34;95767.81;;;4.52;59.14
22651;BME280;11492;42.646;23.400;2023-02-18T06:38:00;95773.25;;;4.59;59.06
22651;BME280;11492;42.646;23.400;2023-02-18T06:40:25;95761.47;;;4.67;58.75
22651;BME280;11492;42.646;23.400;2023-02-18T06:42:51;95765.69;;;4.77;58.53
22651;BME280;11492;42.646;23.400;2023-02-18T06:45:16;95767.53;;;4.96;58.50
22651;BME280;11492;42.646;23.400;2023-02-18T06:47:42;95765.59;;;5.08;58.36
22651;BME280;11492;42.646;23.400;2023-02-18T06:50:08;95758.50;;;5.21;58.19
22651;BME280;11492;42.646;23.400;2023-02-18T06:52:33;95754.22;;;5.31;57.37
22651;BME280;11492;42.646;23.400;2023-02-18T06:54:59;95758.88;;;5.46;56.89
22651;BME280;11492;42.646;23.400;2023-02-18T06:57:24;95762.84;;;5.59;57.17
22651;BME280;11492;42.646;23.400;2023-02-18T06:59:50;95757.63;;;5.70;56.24
22651;BME280;11492;42.646;23.400;2023-02-18T07:02:16;95757.75;;;5.78;55.67
22651;BME280;11492;42.646;23.400;2023-02-18T07:04:41;95764.66;;;5.87;55.25
22651;BME280;11492;42.646;23.400;2023-02-18T07:07:06;95764.53;;;5.97;55.52
22651;BME280;11492;42.646;23.400;2023-02-18T07:09:32;95769.28;;;6.11;55.00
22651;BME280;11492;42.646;23.400;2023-02-18T07:11:57;95756.75;;;6.27;54.90
22651;BME280;11492;42.646;23.400;2023-02-18T07:14:23;95759.84;;;6.40;54.58
22651;BME280;11492;42.646;23.400;2023-02-18T07:16:49;95751.44;;;6.56;54.21
22651;BME280;11492;42.646;23.400;2023-02-18T07:19:15;95754.66;;;6.77;54.38
22651;BME280;11492;42.646;23.400;2023-02-18T07:21:41;95755.69;;;6.93;52.81
22651;BME280;11492;42.646;23.400;2023-02-18T07:24:07;95744.84;;;7.08;52.71
22651;BME280;11492;42.646;23.400;2023-02-18T07:26:32;95753.06;;;7.21;51.45
22651;BME280;11492;42.646;23.400;2023-02-18T07:28:57;95740.69;;;7.34;50.97
22651;BME280;11492;42.646;23.400;2023-02-18T07:31:23;95748.53;;;7.42;50.45
22651;BME280;11492;42.646;23.400;2023-02-18T07:33:48;95737.09;;;7.53;49.77
22651;BME280;11492;42.646;23.400;2023-02-18T07:36:14;95737.75;;;7.55;50.28
22651;BME280;11492;42.646;23.400;2023-02-18T07:38:39;95762.41;;;7.75;50.14
22651;BME280;11492;42.646;23.400;2023-02-18T07:41:04;95746.13;;;7.84;50.26
22651;BME280;11492;42.646;23.400;2023-02-18T07:43:30;95751.06;;;7.95;49.58
22651;BME280;11492;42.646;23.400;2023-02-18T07:45:55;95752.22;;;8.09;48.92
22651;BME280;11492;42.646;23.400;2023-02-18T07:48:21;95755.22;;;8.22;48.95
22651;BME280;11492;42.646;23.400;2023-02-18T07:50:46;95758.19;;;8.27;49.23
22651;BME280;11492;42.646;23.400;2023-02-18T07:53:13;95765.59;;;8.30;49.26
22651;BME280;11492;42.646;23.400;2023-02-18T07:55:38;95766.78;;;8.35;48.56
22651;BME280;11492;42.646;23.400;2023-02-18T07:58:17;95765.03;;;8.36;48.75
22651;BME280;11492;42.646;23.400;2023-02-18T08:00:43;95771.13;;;8.35;48.55
22651;BME280;11492;42.646;23.400;2023-02-18T08:03:08;95762.28;;;8.37;47.74
22651;BME280;11492;42.646;23.400;2023-02-18T08:05:33;95771.06;;;8.44;47.90
22651;BME280;11492;42.646;23.400;2023-02-18T08:07:59;95759.97;;;8.44;47.86
22651;BME280;11492;42.646;23.400;2023-02-18T08:10:24;95756.00;;;8.49;48.58
22651;BME280;11492;42.646;23.400;2023-02-18T08:12:50;95754.59;;;8.54;47.35
22651;BME280;11492;42.646;23.400;2023-02-18T08:15:15;95749.69;;;8.69;46.63
22651;BME280;11492;42.646;23.400;2023-02-18T08:17:41;95757.09;;;8.89;46.28
22651;BME280;11492;42.646;23.400;2023-02-18T08:20:06;95751.59;;;9.09;46.02
22651;BME280;11492;42.646;23.400;2023-02-18T08:22:32;95746.63;;;9.15;45.18
22651;BME280;11492;42.646;23.400;2023-02-18T08:24:58;95736.66;;;9.12;45.10
22651;BME280;11492;42.646;23.400;2023-02-18T08:27:23;95741.19;;;9.43;45.30
22651;BME280;11492;42.646;23.400;2023-02-18T08:29:49;95745.88;;;10.52;43.58
22651;BME280;11492;42.646;23.400;2023-02-18T08:32:14;95745.94;;;11.53;40.29
22651;BME280;11492;42.646;23.400;2023-02-18T08:34:40;95742.63;;;12.12;39.28
22651;BME280;11492;42.646;23.400;2023-02-18T08:37:05;95723.94;;;12.24;38.30
22651;BME280;11492;42.646;23.400;2023-02-18T08:39:35;95743.88;;;11.86;38.67
22651;BME280;11492;42.646;23.400;2023-02-18T08:42:00;95721.69;;;11.54;39.26
22651;BME280;11492;42.646;23.400;2023-02-18T08:44:26;95725.44;;;11.28;39.13
22651;BME280;11492;42.646;23.400;2023-02-18T08:46:52;95715.81;;;10.98;39.87
22651;BME280;11492;42.646;23.400;2023-02-18T08:49:17;95736.66;;;10.89;39.62
22651;BME280;11492;42.646;23.400;2023-02-18T08:51:46;95722.31;;;10.63;39.86
22651;BME280;11492;42.646;23.400;2023-02-18T08:54:12;95735.22;;;10.63;40.31
22651;BME280;11492;42.646;23.400;2023-02-18T08:56:38;95723.59;;;10.67;41.13
22651;BME280;11492;42.646;23.400;2023-02-18T08:59:04;95736.19;;;10.70;41.33
22651;BME280;11492;42.646;23.400;2023-02-18T09:01:30;95735.38;;;10.93;41.21
22651;BME280;11492;42.646;23.400;2023-02-18T09:03:55;95735.19;;;11.18;40.68
22651;BME280;11492;42.646;23.400;2023-02-18T09:06:21;95738.38;;;11.36;39.96
22651;BME280;11492;42.646;23.400;2023-02-18T09:08:46;95725.53;;;11.66;39.89
22651;BME280;11492;42.646;23.400;2023-02-18T09:11:12;95723.41;;;12.07;38.57
22651;BME280;11492;42.646;23.400;2023-02-18T09:13:37;95731.28;;;12.13;37.68
22651;BME280;11492;42.646;23.400;2023-02-18T09:16:11;95723.59;;;12.27;37.69
22651;BME280;11492;42.646;23.400;2023-02-18T09:18:37;95735.84;;;12.85;36.00
22651;BME280;11492;42.646;23.400;2023-02-18T09:21:05;95727.78;;;12.80;35.73
22651;BME280;11492;42.646;23.400;2023-02-18T09:23:32;95728.53;;;13.03;36.37
22651;BME280;11492;42.646;23.400;2023-02-18T09:25:58;95726.66;;;13.62;35.73
22651;BME280;11492;42.646;23.400;2023-02-18T09:28:24;95720.16;;;13.86;34.87
22651;BME280;11492;42.646;23.400;2023-02-18T09:30:50;95729.16;;;14.53;34.29
22651;BME280;11492;42.646;23.400;2023-02-18T09:33:16;95718.97;;;15.41;32.56
22651;BME280;11492;42.646;23.400;2023-02-18T09:35:42;95702.63;;;15.93;31.32
22651;BME280;11492;42.646;23.400;2023-02-18T09:38:09;95700.22;;;16.31;30.56
22651;BME280;11492;42.646;23.400;2023-02-18T09:40:37;95687.13;;;17.09;29.70
22651;BME280;11492;42.646;23.400;2023-02-18T09:43:04;95688.88;;;17.47;28.94
22651;BME280;11492;42.646;23.400;2023-02-18T09:45:31;95691.81;;;17.82;28.83
22651;BME280;11492;42.646;23.400;2023-02-18T09:47:57;95682.72;;;18.47;27.31
22651;BME280;11492;42.646;23.400;2023-02-18T09:50:30;95676.91;;;18.45;27.74
22651;BME280;11492;42.646;23.400;2023-02-18T09:53:01;95683.34;;;18.79;26.91
22651;BME280;11492;42.646;23.400;2023-02-18T09:55:30;95700.25;;;19.07;26.67
22651;BME280;11492;42.646;23.400;2023-02-18T09:58:06;95702.09;;;19.06;26.63
22651;BME280;11492;42.646;23.400;2023-02-18T10:00:38;95696.63;;;18.41;27.12
22651;BME280;11492;42.646;23.400;2023-02-18T10:03:14;95689.72;;;18.09;27.37
22651;BME280;11492;42.646;23.400;2023-02-18T10:05:45;95687.03;;;17.66;28.40
22651;BME280;11492;42.646;23.400;2023-02-18T10:08:28;95688.31;;;17.19;28.75
22651;BME280;11492;42.646;23.400;2023-02-18T10:10:54;95680.22;;;17.59;28.84
22651;BME280;11492;42.646;23.400;2023-02-18T10:13:30;95677.53;;;17.91;28.32
22651;BME280;11492;42.646;23.400;2023-02-18T10:15:55;95678.75;;;18.38;27.04
22651;BME280;11492;42.646;23.400;2023-02-18T10:18:28;95679.91;;;19.33;26.45
22651;BME280;11492;42.646;23.400;2023-02-18T10:21:14;95672.94;;;19.45;25.75
22651;BME280;11492;42.646;23.400;2023-02-18T10:24:15;95668.56;;;20.16;25.31
22651;BME280;11492;42.646;23.400;2023-02-18T10:26:44;95664.94;;;19.99;25.36
22651;BME280;11492;42.646;23.400;2023-02-18T10:29:14;95667.78;;;20.73;24.56
22651;BME280;11492;42.646;23.400;2023-02-18T10:31:44;95657.88;;;21.72;23.51
22651;BME280;11492;42.646;23.400;2023-02-18T10:34:42;95649.63;;;22.41;22.66
22651;BME280;11492;42.646;23.400;2023-02-18T10:39:54;95648.56;;;22.14;24.27
22651;BME280;11492;42.646;23.400;2023-02-18T10:45:47;95626.66;;;24.14;21.36
22651;BME280;11492;42.646;23.400;2023-02-18T10:51:30;95617.66;;;24.36;20.75
22651;BME280;11492;42.646;23.400;2023-02-18T10:53:53;95610.91;;;24.71;20.90
22651;BME280;11492;42.646;23.400;2023-02-18T10:56:36;95615.00;;;25.40;20.37
22651;BME280;11492;42.646;23.400;2023-02-18T10:59:10;95608.03;;;25.65;19.80
22651;BME280;11492;42.646;23.400;2023-02-18T11:01:36;95607.75;;;25.26;20.03
22651;BME280;11492;42.646;23.400;2023-02-18T11:04:15;95610.16;;;26.09;19.34
22651;BME280;11492;42.646;23.400;2023-02-18T11:06:43;95604.25;;;26.02;19.74
22651;BME280;11492;42.646;23.400;2023-02-18T11:09:30;95600.81;;;24.89;20.14
22651;BME280;11492;42.646;23.400;2023-02-18T11:14:49;95589.47;;;22.76;22.44
22651;BME280;11492;42.646;23.400;2023-02-18T11:17:30;95583.88;;;23.38;22.01
22651;BME280;11492;42.646;23.400;2023-02-18T11:19:57;95579.53;;;24.49;21.20
22651;BME280;11492;42.646;23.400;2023-02-18T11:22:27;95563.66;;;24.49;20.51
22651;BME280;11492;42.646;23.400;2023-02-18T11:24:55;95566.00;;;24.19;20.94
22651;BME280;11492;42.646;23.400;2023-02-18T11:27:47;95558.44;;;24.06;21.58
22651;BME280;11492;42.646;23.400;2023-02-18T11:32:48;95547.84;;;23.27;21.70
22651;BME280;11492;42.646;23.400;2023-02-18T11:35:18;95539.00;;;23.17;22.48
22651;BME280;11492;42.646;23.400;2023-02-18T11:37:44;95536.38;;;22.52;22.56
22651;BME280;11492;42.646;23.400;2023-02-18T11:40:28;95544.16;;;22.31;23.08
22651;BME280;11492;42.646;23.400;2023-02-18T11:43:12;95527.13;;;22.98;24.11
22651;BME280;11492;42.646;23.400;2023-02-18T11:45:39;95526.97;;;23.04;23.07
22651;BME280;11492;42.646;23.400;2023-02-18T11:50:33;95520.22;;;23.67;22.21
22651;BME280;11492;42.646;23.400;2023-02-18T11:52:59;95518.84;;;24.58;21.61
22651;BME280;11492;42.646;23.400;2023-02-18T11:55:27;95518.09;;;25.75;19.63
22651;BME280;11492;42.646;23.400;2023-02-18T11:57:56;95512.25;;;25.68;20.06
22651;BME280;11492;42.646;23.400;2023-02-18T12:00:47;95498.25;;;26.87;19.26
22651;BME280;11492;42.646;23.400;2023-02-18T12:06:03;95490.09;;;28.75;17.25
22651;BME280;11492;42.646;23.400;2023-02-18T12:08:34;95489.50;;;28.83;17.84
22651;BME280;11492;42.646;23.400;2023-02-18T12:11:15;95479.09;;;28.86;16.60
22651;BME280;11492;42.646;23.400;2023-02-18T12:13:52;95470.56;;;29.91;16.72
22651;BME280;11492;42.646;23.400;2023-02-18T12:19:17;95469.69;;;30.37;16.34
22651;BME280;11492;42.646;23.400;2023-02-18T12:22:33;95457.59;;;30.94;16.20
22651;BME280;11492;42.646;23.400;2023-02-18T12:25:08;95461.97;;;31.21;16.07
22651;BME280;11492;42.646;23.400;2023-02-18T12:36:32;95443.78;;;27.24;18.37
22651;BME280;11492;42.646;23.400;2023-02-18T12:50:13;95420.53;;;28.58;17.79
22651;BME280;11492;42.646;23.400;2023-02-18T13:01:50;95419.41;;;29.25;17.12
22651;BME280;11492;42.646;23.400;2023-02-18T13:07:12;95424.75;;;30.80;16.81
22651;BME280;11492;42.646;23.400;2023-02-18T13:12:20;95420.66;;;30.69;16.69
22651;BME280;11492;42.646;23.400;2023-02-18T13:15:18;95427.03;;;29.55;17.13
22651;BME280;11492;42.646;23.400;2023-02-18T13:17:46;95417.34;;;28.56;17.51
22651;BME280;11492;42.646;23.400;2023-02-18T13:20:39;95422.03;;;27.94;18.11
22651;BME280;11492;42.646;23.400;2023-02-18T13:23:15;95416.78;;;27.02;19.16
22651;BME280;11492;42.646;23.400;2023-02-18T13:25:41;95426.63;;;26.62;19.02
22651;BME280;11492;42.646;23.400;2023-02-18T13:34:16;95423.56;;;24.75;20.57
22651;BME280;11492;42.646;23.400;2023-02-18T13:41:25;95419.97;;;22.71;22.02
22651;BME280;11492;42.646;23.400;2023-02-18T13:43:51;95443.03;;;21.72;22.61
22651;BME280;11492;42.646;23.400;2023-02-18T13:46:21;95433.16;;;21.51;22.99
22651;BME280;11492;42.646;23.400;2023-02-18T13:48:48;95434.84;;;21.30;23.30
22651;BME280;11492;42.646;23.400;2023-02-18T13:51:39;95429.28;;;21.04;24.34
22651;BME280;11492;42.646;23.400;2023-02-18T13:59:23;95426.78;;;20.19;27.15
22651;BME280;11492;42.646;23.400;2023-02-18T14:01:52;95428.13;;;19.98;26.95
22651;BME280;11492;42.646;23.400;2023-02-18T14:09:56;95413.59;;;19.27;28.52
22651;BME280;11492;42.646;23.400;2023-02-18T14:14:50;95416.31;;;18.85;28.11
22651;BME280;11492;42.646;23.400;2023-02-18T14:19:54;95429.81;;;18.65;28.61
22651;BME280;11492;42.646;23.400;2023-02-18T14:27:32;95422.66;;;18.12;29.86
22651;BME280;11492;42.646;23.400;2023-02-18T14:30:04;95438.34;;;18.12;29.59
22651;BME280;11492;42.646;23.400;2023-02-18T14:32:31;95433.66;;;17.90;29.25
22651;BME280;11492;42.646;23.400;2023-02-18T14:43:03;95436.81;;;17.38;30.86
22651;BME280;11492;42.646;23.400;2023-02-18T14:48:33;95432.03;;;17.35;30.51
22651;BME280;11492;42.646;23.400;2023-02-18T14:51:02;95433.22;;;17.32;30.17
22651;BME280;11492;42.646;23.400;2023-02-18T14:53:28;95428.88;;;17.20;30.14
22651;BME280;11492;42.646;23.400;2023-02-18T14:56:04;95420.63;;;17.23;30.20
22651;BME280;11492;42.646;23.400;2023-02-18T14:58:38;95424.31;;;17.03;30.81
22651;BME280;11492;42.646;23.400;2023-02-18T15:03:48;95419.91;;;17.03;30.55
22651;BME280;11492;42.646;23.400;2023-02-18T15:08:52;95419.50;;;17.06;30.86
22651;BME280;11492;42.646;23.400;2023-02-18T15:11:20;95423.69;;;17.01;31.48
22651;BME280;11492;42.646;23.400;2023-02-18T15:13:47;95415.34;;;16.93;31.35
22651;BME280;11492;42.646;23.400;2023-02-18T15:18:55;95423.25;;;16.67;31.75
22651;BME280;11492;42.646;23.400;2023-02-18T15:21:41;95411.03;;;16.48;32.34
22651;BME280;11492;42.646;23.400;2023-02-18T15:24:11;95419.13;;;16.09;32.51
22651;BME280;11492;42.646;23.400;2023-02-18T15:26:42;95416.28;;;15.97;32.91
22651;BME280;11492;42.646;23.400;2023-02-18T15:29:17;95412.66;;;15.73;33.00
22651;BME280;11492;42.646;23.400;2023-02-18T15:31:46;95413.88;;;15.64;33.47
22651;BME280;11492;42.646;23.400;2023-02-18T15:36:53;95413.25;;;15.62;33.84